Time;durP1;ratioP1;P1;durP2;ratioP2;P2;SDS_P1;SDS_P2;PMS_P1;PMS_P2;Temp;Humidity;BMP_temperature;BMP_pressure;BME280_temperature;BME280_humidity;BME280_pressure;Samples;Min_cycle;Max_cycle;Signal;HPM_P1;HPM_P2
2022/06/16 00:00:39;;;;;;;5.82;3.88;;;;;;;;;;5013909;28;20050;-67
2022/06/16 00:03:07;;;;;;;4.93;3.75;;;;;;;;;;5014501;28;20057;-68
2022/06/16 00:05:35;;;;;;;4.70;3.40;;;;;;;;;;5014260;28;20120;-68
2022/06/16 00:08:05;;;;;;;4.82;3.35;;;;;;;;;;5014827;28;20156;-68
2022/06/16 00:10:32;;;;;;;4.78;3.53;;;;;;;;;;5014746;28;20489;-68
2022/06/16 00:12:58;;;;;;;5.50;3.15;;;;;;;;;;5014250;28;20050;-69
2022/06/16 00:15:27;;;;;;;6.93;3.83;;;;;;;;;;5014409;28;20123;-68
2022/06/16 00:17:55;;;;;;;6.63;3.60;;;;;;;;;;5012049;28;20497;-67
2022/06/16 00:20:22;;;;;;;4.63;3.33;;;;;;;;;;4994970;28;20054;-67
2022/06/16 00:22:49;;;;;;;5.30;3.55;;;;;;;;;;4994577;28;20108;-67
2022/06/16 00:25:16;;;;;;;4.07;3.65;;;;;;;;;;4994669;28;20085;-68
2022/06/16 00:27:43;;;;;;;5.90;3.55;;;;;;;;;;4994576;28;20077;-68
2022/06/16 00:30:10;;;;;;;5.78;3.60;;;;;;;;;;4994792;28;20049;-68
2022/06/16 00:32:38;;;;;;;6.40;4.60;;;;;;;;;;4994042;28;20122;-68
2022/06/16 00:35:05;;;;;;;4.82;3.78;;;;;;;;;;4994754;28;20592;-68
2022/06/16 00:37:32;;;;;;;5.38;3.95;;;;;;;;;;4994824;28;20465;-68
2022/06/16 00:39:59;;;;;;;4.60;4.10;;;;;;;;;;4994392;28;20052;-68
2022/06/16 00:42:25;;;;;;;4.22;3.83;;;;;;;;;;4994228;28;20051;-68
2022/06/16 00:44:54;;;;;;;4.30;3.90;;;;;;;;;;4994562;28;20046;-68
2022/06/16 00:47:24;;;;;;;8.23;4.40;;;;;;;;;;4994123;28;20057;-68
2022/06/16 00:49:52;;;;;;;4.85;3.97;;;;;;;;;;4994428;28;20097;-68
2022/06/16 00:52:30;;;;;;;5.35;4.47;;;;;;;;;;4992901;28;20484;-68
2022/06/16 00:55:07;;;;;;;5.32;4.10;;;;;;;;;;5012362;28;20049;-69
2022/06/16 00:57:37;;;;;;;5.75;4.50;;;;;;;;;;5012554;28;20050;-68
2022/06/16 01:00:11;;;;;;;8.10;4.18;;;;;;;;;;5012495;28;20049;-68
2022/06/16 01:02:38;;;;;;;5.53;4.38;;;;;;;;;;4993687;28;20097;-68
2022/06/16 01:05:05;;;;;;;6.70;4.40;;;;;;;;;;4993948;28;20089;-68
2022/06/16 01:07:34;;;;;;;5.13;4.28;;;;;;;;;;4994663;28;20050;-69
2022/06/16 01:10:01;;;;;;;5.15;4.20;;;;;;;;;;4992885;28;20093;-69
2022/06/16 01:15:47;;;;;;;7.13;4.72;;;;;;;;;;4993608;28;20050;-69
2022/06/16 01:18:50;;;;;;;5.47;4.35;;;;;;;;;;4990486;28;20057;-69
2022/06/16 01:21:32;;;;;;;6.80;4.40;;;;;;;;;;4993464;28;20105;-69
2022/06/16 01:24:20;;;;;;;5.40;4.30;;;;;;;;;;4993496;28;20065;-68
2022/06/16 01:26:46;;;;;;;6.38;4.63;;;;;;;;;;4992341;28;20193;-69
2022/06/16 01:29:16;;;;;;;8.00;5.07;;;;;;;;;;4993563;28;20050;-68
2022/06/16 01:31:52;;;;;;;8.07;4.82;;;;;;;;;;4993448;28;20058;-69
2022/06/16 01:34:32;;;;;;;9.15;4.82;;;;;;;;;;4992005;28;20050;-68
2022/06/16 01:37:08;;;;;;;6.55;4.65;;;;;;;;;;4992108;28;20062;-69
2022/06/16 01:39:37;;;;;;;4.57;4.15;;;;;;;;;;4993427;28;20054;-68
2022/06/16 01:42:08;;;;;;;6.30;4.80;;;;;;;;;;4993226;28;20113;-68
2022/06/16 01:44:45;;;;;;;7.57;4.50;;;;;;;;;;4992158;28;20056;-68
2022/06/16 01:47:15;;;;;;;5.90;4.97;;;;;;;;;;4992445;28;20050;-68
2022/06/16 01:49:54;;;;;;;6.03;5.47;;;;;;;;;;5008111;28;20050;-68
2022/06/16 01:52:42;;;;;;;10.75;4.60;;;;;;;;;;4992893;28;20077;-68
2022/06/16 01:55:16;;;;;;;7.05;4.97;;;;;;;;;;4993005;28;20108;-68
2022/06/16 01:57:52;;;;;;;7.00;4.95;;;;;;;;;;5008062;28;20520;-68
2022/06/16 02:00:23;;;;;;;8.68;5.05;;;;;;;;;;4991829;28;20054;-68
2022/06/16 02:02:55;;;;;;;7.15;4.65;;;;;;;;;;4992019;28;20501;-68
2022/06/16 02:05:23;;;;;;;6.57;4.93;;;;;;;;;;5007895;28;20050;-69
2022/06/16 02:08:16;;;;;;;5.53;5.00;;;;;;;;;;4991865;28;20112;-69
2022/06/16 02:10:50;;;;;;;8.27;4.97;;;;;;;;;;4992806;28;20054;-68
2022/06/16 02:13:20;;;;;;;5.50;4.45;;;;;;;;;;4992013;28;20085;-68
2022/06/16 02:15:54;;;;;;;5.13;4.63;;;;;;;;;;4992724;28;20047;-68
2022/06/16 02:18:27;;;;;;;5.80;5.00;;;;;;;;;;4991443;28;20054;-69
2022/06/16 02:21:02;;;;;;;5.90;5.32;;;;;;;;;;5007370;28;20469;-68
2022/06/16 02:23:29;;;;;;;5.50;4.50;;;;;;;;;;4991259;28;20105;-68
2022/06/16 02:25:57;;;;;;;8.90;5.10;;;;;;;;;;4991103;28;20050;-68
2022/06/16 02:28:24;;;;;;;6.03;4.53;;;;;;;;;;4992590;28;20100;-68
2022/06/16 02:30:53;;;;;;;5.18;4.63;;;;;;;;;;4992307;28;20046;-68
2022/06/16 02:33:23;;;;;;;7.35;4.82;;;;;;;;;;4992396;28;20046;-68
2022/06/16 02:35:54;;;;;;;6.28;5.43;;;;;;;;;;5007734;28;20053;-68
2022/06/16 02:38:47;;;;;;;5.63;5.00;;;;;;;;;;4991847;28;20421;-67
2022/06/16 02:41:32;;;;;;;6.97;5.28;;;;;;;;;;4989447;28;20065;-69
2022/06/16 02:44:11;;;;;;;6.18;5.25;;;;;;;;;;4992177;28;20494;-68
2022/06/16 02:46:52;;;;;;;5.25;4.60;;;;;;;;;;4992268;28;20075;-68
2022/06/16 02:49:36;;;;;;;5.10;4.68;;;;;;;;;;5007481;28;20057;-68
2022/06/16 02:52:30;;;;;;;6.35;4.65;;;;;;;;;;4990838;28;20050;-68
2022/06/16 02:55:00;;;;;;;;;;;;;;;;;;4992536;28;20057;-69
2022/06/16 02:57:48;;;;;;;8.32;5.22;;;;;;;;;;4992366;28;19949;-69
2022/06/16 03:00:17;;;;;;;6.15;4.75;;;;;;;;;;5007193;28;20445;-68
2022/06/16 03:02:44;;;;;;;6.18;5.57;;;;;;;;;;5007343;28;20062;-68
2022/06/16 03:05:13;;;;;;;6.07;5.45;;;;;;;;;;4993097;28;20061;-68
2022/06/16 03:07:39;;;;;;;5.93;5.38;;;;;;;;;;4993190;28;20457;-67
2022/06/16 03:10:06;;;;;;;8.23;5.75;;;;;;;;;;4991091;28;20050;-67
2022/06/16 03:12:33;;;;;;;6.55;5.60;;;;;;;;;;4991943;28;20054;-67
2022/06/16 03:15:00;;;;;;;9.40;5.65;;;;;;;;;;4991930;28;20097;-67
2022/06/16 03:17:26;;;;;;;7.40;5.55;;;;;;;;;;4991684;28;20422;-67
2022/06/16 03:19:53;;;;;;;5.82;4.88;;;;;;;;;;4992081;28;20054;-67
2022/06/16 03:22:19;;;;;;;6.72;4.90;;;;;;;;;;4991761;28;20058;-67
2022/06/16 03:24:46;;;;;;;7.13;6.10;;;;;;;;;;4991947;28;20459;-66
2022/06/16 03:27:13;;;;;;;5.38;4.85;;;;;;;;;;4991396;28;20050;-67
2022/06/16 03:29:40;;;;;;;6.05;5.13;;;;;;;;;;4991999;28;20062;-66
2022/06/16 03:32:06;;;;;;;6.15;5.55;;;;;;;;;;4992062;28;20109;-67
2022/06/16 03:34:34;;;;;;;6.18;5.40;;;;;;;;;;4992002;28;20057;-67
2022/06/16 03:37:01;;;;;;;5.50;5.00;;;;;;;;;;4993901;28;20572;-67
2022/06/16 03:39:27;;;;;;;7.22;5.10;;;;;;;;;;4995607;28;20050;-67
2022/06/16 03:41:54;;;;;;;9.45;5.63;;;;;;;;;;4995268;28;20532;-67
2022/06/16 03:44:21;;;;;;;7.93;5.00;;;;;;;;;;4995412;28;20579;-66
2022/06/16 03:46:47;;;;;;;6.80;5.47;;;;;;;;;;4995315;28;20069;-66
2022/06/16 03:49:14;;;;;;;5.57;5.00;;;;;;;;;;4995306;28;20149;-66
2022/06/16 03:51:41;;;;;;;6.10;5.18;;;;;;;;;;4994970;28;20051;-66
2022/06/16 03:54:08;;;;;;;9.70;5.82;;;;;;;;;;5010469;28;20072;-66
2022/06/16 03:56:34;;;;;;;8.18;5.30;;;;;;;;;;5014665;28;20058;-67
2022/06/16 03:59:01;;;;;;;7.15;5.50;;;;;;;;;;5002769;28;20105;-66
2022/06/16 04:01:27;;;;;;;7.82;5.72;;;;;;;;;;4995010;28;20457;-66
2022/06/16 04:04:00;;;;;;;5.47;4.97;;;;;;;;;;4995089;28;20561;-66
2022/06/16 04:06:31;;;;;;;;;;;;;;;;;;4995385;28;20053;-66
2022/06/16 04:08:58;;;;;;;6.85;4.60;;;;;;;;;;4995092;28;19921;-66
2022/06/16 04:11:28;;;;;;;7.68;5.15;;;;;;;;;;5008041;28;20112;-66
2022/06/16 04:13:56;;;;;;;6.00;5.03;;;;;;;;;;5014566;28;20061;-66
2022/06/16 04:16:23;;;;;;;6.30;5.00;;;;;;;;;;5014456;28;20046;-66
2022/06/16 04:18:50;;;;;;;7.63;4.90;;;;;;;;;;5014534;28;20050;-66
2022/06/16 04:21:17;;;;;;;6.43;5.13;;;;;;;;;;5012777;28;20488;-66
2022/06/16 04:23:43;;;;;;;6.72;5.13;;;;;;;;;;4999740;28;20054;-66
2022/06/16 04:26:10;;;;;;;5.53;4.95;;;;;;;;;;4994675;28;20101;-66
2022/06/16 04:28:37;;;;;;;6.70;4.70;;;;;;;;;;4994453;28;20490;-66
2022/06/16 04:31:03;;;;;;;5.18;4.45;;;;;;;;;;4994589;28;20050;-66
2022/06/16 04:33:30;;;;;;;5.68;4.45;;;;;;;;;;4994255;28;20523;-66
2022/06/16 04:35:57;;;;;;;5.68;4.90;;;;;;;;;;4994562;28;20465;-66
2022/06/16 04:38:23;;;;;;;5.15;4.65;;;;;;;;;;4994266;28;20501;-66
2022/06/16 04:40:50;;;;;;;5.60;5.05;;;;;;;;;;5002632;28;20413;-66
2022/06/16 04:43:17;;;;;;;6.20;5.18;;;;;;;;;;5013886;28;20049;-66
2022/06/16 04:45:44;;;;;;;6.70;4.63;;;;;;;;;;5013631;28;20046;-66
2022/06/16 04:48:11;;;;;;;5.70;4.68;;;;;;;;;;5013502;28;20659;-66
2022/06/16 04:50:40;;;;;;;6.70;4.97;;;;;;;;;;4999522;28;20064;-66
2022/06/16 04:53:07;;;;;;;5.43;4.57;;;;;;;;;;4994003;28;20464;-66
2022/06/16 04:55:34;;;;;;;5.25;4.75;;;;;;;;;;4994019;28;20509;-66
2022/06/16 04:58:04;;;;;;;7.75;4.53;;;;;;;;;;4994122;28;20054;-66
2022/06/16 05:00:31;;;;;;;6.47;4.40;;;;;;;;;;5008640;28;20053;-66
2022/06/16 05:03:04;;;;;;;7.22;4.53;;;;;;;;;;5013358;28;20049;-66
2022/06/16 05:05:31;;;;;;;5.75;4.35;;;;;;;;;;5011335;28;20390;-66
2022/06/16 05:07:57;;;;;;;4.95;4.43;;;;;;;;;;5013332;28;20049;-73
2022/06/16 05:10:24;;;;;;;7.55;5.03;;;;;;;;;;4997250;28;20050;-73
2022/06/16 05:12:51;;;;;;;4.85;4.22;;;;;;;;;;4993675;28;20054;-67
2022/06/16 05:15:18;;;;;;;6.15;4.38;;;;;;;;;;4993727;28;20043;-75
2022/06/16 05:17:45;;;;;;;5.53;4.90;;;;;;;;;;5009950;28;20057;-75
2022/06/16 05:20:12;;;;;;;8.00;4.75;;;;;;;;;;5003747;28;20061;-72
2022/06/16 05:22:39;;;;;;;5.15;4.70;;;;;;;;;;4993297;28;20489;-72
2022/06/16 05:25:06;;;;;;;5.82;4.90;;;;;;;;;;4993546;28;20054;-75
2022/06/16 05:27:33;;;;;;;4.95;4.55;;;;;;;;;;5012825;28;20050;-74
2022/06/16 05:30:00;;;;;;;5.00;4.07;;;;;;;;;;5004244;28;20054;-75
2022/06/16 05:32:26;;;;;;;6.65;5.05;;;;;;;;;;4993130;28;20050;-75
2022/06/16 05:34:53;;;;;;;5.55;4.63;;;;;;;;;;4993664;28;20117;-73
2022/06/16 05:37:20;;;;;;;5.70;4.50;;;;;;;;;;4993206;28;20054;-71
2022/06/16 05:39:49;;;;;;;9.50;4.47;;;;;;;;;;5012258;28;20508;-72
2022/06/16 05:42:18;;;;;;;5.70;4.55;;;;;;;;;;5012738;28;20066;-73
2022/06/16 05:44:45;;;;;;;6.93;4.60;;;;;;;;;;5012561;28;20050;-73
2022/06/16 05:47:12;;;;;;;6.78;4.35;;;;;;;;;;5012483;28;20053;-72
2022/06/16 05:49:39;;;;;;;4.78;4.07;;;;;;;;;;5008504;28;20054;-75
2022/06/16 05:52:11;;;;;;;5.47;4.40;;;;;;;;;;5012680;28;20053;-72
2022/06/16 05:54:38;;;;;;;4.50;4.10;;;;;;;;;;5011263;28;20053;-71
2022/06/16 05:57:07;;;;;;;4.22;3.70;;;;;;;;;;5012540;28;20046;-70
2022/06/16 05:59:34;;;;;;;5.60;4.68;;;;;;;;;;5011834;28;20092;-70
2022/06/16 06:02:01;;;;;;;4.13;3.83;;;;;;;;;;5012586;28;20049;-71
2022/06/16 06:04:30;;;;;;;4.35;3.95;;;;;;;;;;5012359;28;20084;-71
2022/06/16 06:06:57;;;;;;;4.38;3.90;;;;;;;;;;5012241;28;20054;-70
2022/06/16 06:17:46;;;;;;;5.60;4.10;;;;;;;;;;4992681;28;20101;-71
2022/06/16 06:20:13;;;;;;;4.25;3.50;;;;;;;;;;4991538;28;20054;-68
2022/06/16 06:22:39;;;;;;;5.20;4.20;;;;;;;;;;4992234;28;20056;-68
2022/06/16 06:25:06;;;;;;;3.97;3.58;;;;;;;;;;4992398;28;20054;-69
2022/06/16 06:27:35;;;;;;;3.72;3.40;;;;;;;;;;4990975;28;20108;-68
2022/06/16 06:30:05;;;;;;;4.30;3.40;;;;;;;;;;4973597;28;20158;-68
2022/06/16 06:32:32;;;;;;;4.93;3.55;;;;;;;;;;4990472;28;20105;-69
2022/06/16 06:34:59;;;;;;;4.95;3.83;;;;;;;;;;4990321;28;20054;-69
2022/06/16 06:37:26;;;;;;;4.78;3.58;;;;;;;;;;5000875;28;20057;-69
2022/06/16 06:39:54;;;;;;;5.90;3.30;;;;;;;;;;5009205;28;20061;-70
2022/06/16 06:42:20;;;;;;;7.38;4.22;;;;;;;;;;5010060;28;20058;-68
2022/06/16 06:44:47;;;;;;;6.38;3.90;;;;;;;;;;5009828;28;20062;-68
2022/06/16 06:47:19;;;;;;;5.63;3.70;;;;;;;;;;5000442;28;20112;-69
2022/06/16 06:49:46;;;;;;;5.60;4.15;;;;;;;;;;4990382;28;20062;-70
2022/06/16 06:52:13;;;;;;;4.78;3.38;;;;;;;;;;4990571;28;20061;-68
2022/06/16 06:54:42;;;;;;;4.47;3.80;;;;;;;;;;4989939;28;20086;-68
2022/06/16 06:57:14;;;;;;;5.05;3.38;;;;;;;;;;4990300;28;20038;-69
2022/06/16 06:59:41;;;;;;;4.70;3.85;;;;;;;;;;4973250;28;20057;-69
2022/06/16 07:02:11;;;;;;;4.22;3.67;;;;;;;;;;4989979;28;20059;-68
2022/06/16 07:04:39;;;;;;;5.18;4.10;;;;;;;;;;4989408;28;20428;-69
2022/06/16 07:07:08;;;;;;;4.43;4.03;;;;;;;;;;4997244;28;20500;-68
2022/06/16 07:09:35;;;;;;;8.65;3.58;;;;;;;;;;5008688;28;20485;-68
2022/06/16 07:12:02;;;;;;;3.55;3.10;;;;;;;;;;5013261;28;20046;-65
2022/06/16 07:14:30;;;;;;;5.40;3.33;;;;;;;;;;5012545;28;20054;-75
2022/06/16 07:16:57;;;;;;;4.68;3.30;;;;;;;;;;4996616;28;20046;-64
2022/06/16 07:19:24;;;;;;;5.72;3.17;;;;;;;;;;5011826;28;20050;-69
2022/06/16 07:21:50;;;;;;;7.10;3.88;;;;;;;;;;5000742;28;20047;-70
2022/06/16 07:24:17;;;;;;;5.15;3.67;;;;;;;;;;5003611;28;20057;-73
2022/06/16 07:26:44;;;;;;;6.43;3.53;;;;;;;;;;5001366;28;20100;-71
2022/06/16 07:29:11;;;;;;;4.90;3.45;;;;;;;;;;5001730;28;20053;-71
2022/06/16 07:31:37;;;;;;;3.80;3.05;;;;;;;;;;5002205;28;20089;-72
2022/06/16 07:34:04;;;;;;;5.57;3.58;;;;;;;;;;5002041;28;20058;-69
2022/06/16 07:36:31;;;;;;;5.43;3.88;;;;;;;;;;5001935;28;20041;-73
2022/06/16 07:38:57;;;;;;;8.23;4.18;;;;;;;;;;5003617;28;20054;-75
2022/06/16 07:41:36;;;;;;;5.25;3.40;;;;;;;;;;4984374;28;20050;-72
2022/06/16 07:44:08;;;;;;;4.97;3.72;;;;;;;;;;5000597;28;20401;-69
2022/06/16 07:46:35;;;;;;;9.20;3.67;;;;;;;;;;5003623;28;20125;-69
2022/06/16 07:49:07;;;;;;;5.40;3.83;;;;;;;;;;5004601;28;20481;-73
2022/06/16 07:51:34;;;;;;;7.50;3.72;;;;;;;;;;5015703;28;20466;-73
2022/06/16 07:54:10;;;;;;;6.82;3.67;;;;;;;;;;4999147;28;20081;-71
2022/06/16 07:56:57;;;;;;;8.48;4.47;;;;;;;;;;5001242;28;20057;-72
2022/06/16 07:59:24;;;;;;;7.35;3.72;;;;;;;;;;5002336;28;20051;-73
2022/06/16 08:01:51;;;;;;;6.93;3.45;;;;;;;;;;5002290;28;20046;-73
2022/06/16 08:04:18;;;;;;;6.80;4.00;;;;;;;;;;5002201;28;20057;-74
2022/06/16 08:06:45;;;;;;;6.75;3.50;;;;;;;;;;5001397;28;20041;-68
2022/06/16 08:09:12;;;;;;;3.55;3.20;;;;;;;;;;5001745;28;20062;-68
2022/06/16 08:14:24;;;;;;;4.18;3.55;;;;;;;;;;5001370;28;20404;-68
2022/06/16 08:16:52;;;;;;;5.60;3.30;;;;;;;;;;5002401;28;20049;-67
2022/06/16 08:19:19;;;;;;;4.20;3.40;;;;;;;;;;5001259;28;20046;-68
2022/06/16 08:21:46;;;;;;;7.32;3.42;;;;;;;;;;4999269;28;20054;-67
2022/06/16 08:24:12;;;;;;;5.60;3.67;;;;;;;;;;5004264;28;20413;-67
2022/06/16 08:26:39;;;;;;;5.10;3.58;;;;;;;;;;4999725;28;20046;-68
2022/06/16 08:29:08;;;;;;;6.10;3.35;;;;;;;;;;5002948;28;20065;-68
2022/06/16 08:31:35;;;;;;;4.03;2.70;;;;;;;;;;4998979;28;21258;-67
2022/06/16 08:34:01;;;;;;;3.22;2.92;;;;;;;;;;4999100;28;20148;-66
2022/06/16 08:36:28;;;;;;;4.32;3.08;;;;;;;;;;5000954;28;20045;-66
2022/06/16 08:38:55;;;;;;;5.28;2.85;;;;;;;;;;4999546;28;20046;-66
2022/06/16 08:41:31;;;;;;;4.07;2.83;;;;;;;;;;5001059;28;20100;-64
2022/06/16 08:44:18;;;;;;;5.13;2.85;;;;;;;;;;5001405;28;20077;-67
2022/06/16 08:47:01;;;;;;;5.38;3.10;;;;;;;;;;4997955;28;20060;-67
2022/06/16 08:49:39;;;;;;;4.85;3.13;;;;;;;;;;4984828;28;20050;-63
2022/06/16 08:52:40;;;;;;;6.32;2.85;;;;;;;;;;4999770;28;20050;-63
2022/06/16 08:55:21;;;;;;;7.15;4.40;;;;;;;;;;5004774;28;20054;-63
2022/06/16 08:57:57;;;;;;;5.05;3.58;;;;;;;;;;5000935;28;20492;-63
2022/06/16 09:00:33;;;;;;;3.65;3.10;;;;;;;;;;5000843;28;20058;-66
2022/06/16 09:03:28;;;;;;;5.75;3.78;;;;;;;;;;4985118;28;20046;-64
2022/06/16 09:06:07;;;;;;;6.45;4.00;;;;;;;;;;5006092;28;20077;-70
2022/06/16 09:09:07;;;;;;;4.88;3.70;;;;;;;;;;4991482;28;20046;-67
2022/06/16 09:11:54;;;;;;;5.90;4.10;;;;;;;;;;5000471;28;20060;-62
2022/06/16 09:17:51;;;;;;;7.00;4.32;;;;;;;;;;5004012;28;20050;-67
2022/06/16 09:21:11;;;;;;;6.43;3.70;;;;;;;;;;5000664;28;20664;-63
2022/06/16 09:23:40;;;;;;;5.45;4.00;;;;;;;;;;5000407;28;20167;-70
2022/06/16 09:26:19;;;;;;;4.55;3.60;;;;;;;;;;5001979;28;20421;-65
2022/06/16 09:29:04;;;;;;;6.20;4.05;;;;;;;;;;4985667;28;20109;-64
2022/06/16 09:31:41;;;;;;;6.95;4.45;;;;;;;;;;5014366;28;20053;-65
2022/06/16 09:34:32;;;;;;;7.47;3.83;;;;;;;;;;4997964;28;20057;-65
2022/06/16 09:37:03;;;;;;;12.70;4.38;;;;;;;;;;5003506;28;20109;-65
2022/06/16 09:39:34;;;;;;;4.70;3.78;;;;;;;;;;4985516;28;20552;-65
2022/06/16 09:42:37;;;;;;;7.55;4.40;;;;;;;;;;4999170;28;20050;-65
2022/06/16 09:45:11;;;;;;;5.70;3.20;;;;;;;;;;5002968;28;21420;-65
2022/06/16 09:47:48;;;;;;;5.40;4.03;;;;;;;;;;5003321;28;20050;-65
2022/06/16 09:50:20;;;;;;;7.13;4.00;;;;;;;;;;5002320;28;20115;-65
2022/06/16 09:52:49;;;;;;;;;;;;;;;;;;5006055;28;20050;-65
2022/06/16 09:55:20;;;;;;;6.78;3.88;;;;;;;;;;5017353;28;20920;-65
2022/06/16 09:57:54;;;;;;;5.15;3.53;;;;;;;;;;5001592;28;20464;-65
2022/06/16 10:00:22;;;;;;;4.47;3.40;;;;;;;;;;5002118;28;20440;-65
2022/06/16 10:02:59;;;;;;;6.95;3.75;;;;;;;;;;4999679;28;20056;-65
2022/06/16 10:05:37;;;;;;;5.38;3.42;;;;;;;;;;5000937;28;20140;-65
2022/06/16 10:08:15;;;;;;;6.50;3.85;;;;;;;;;;4981843;28;20046;-65
2022/06/16 10:10:51;;;;;;;5.20;3.72;;;;;;;;;;4997739;28;20042;-65
2022/06/16 10:13:41;;;;;;;6.82;3.63;;;;;;;;;;5001289;28;20050;-65
2022/06/16 10:16:18;;;;;;;3.97;3.60;;;;;;;;;;4998930;28;20058;-65
2022/06/16 10:18:46;;;;;;;4.72;3.50;;;;;;;;;;5001845;28;20050;-65
2022/06/16 10:21:15;;;;;;;5.90;3.35;;;;;;;;;;5022943;28;20054;-65
2022/06/16 10:23:49;;;;;;;8.63;4.47;;;;;;;;;;5001609;28;20046;-65
2022/06/16 10:26:16;;;;;;;5.22;3.70;;;;;;;;;;5001022;28;20105;-65
2022/06/16 10:28:48;;;;;;;4.35;3.58;;;;;;;;;;4999256;28;20049;-64
2022/06/16 10:31:19;;;;;;;5.63;3.95;;;;;;;;;;5000404;28;20394;-64
2022/06/16 10:33:54;;;;;;;5.47;3.55;;;;;;;;;;5014530;28;20417;-64
2022/06/16 10:36:23;;;;;;;6.35;3.22;;;;;;;;;;5003806;28;20050;-64
2022/06/16 10:39:15;;;;;;;5.68;3.90;;;;;;;;;;4999305;28;20105;-64
2022/06/16 10:42:12;;;;;;;6.10;3.13;;;;;;;;;;4998542;28;20046;-64
2022/06/16 10:44:39;;;;;;;7.05;3.00;;;;;;;;;;5002327;28;20053;-64
2022/06/16 10:47:07;;;;;;;10.05;4.18;;;;;;;;;;5024892;28;20054;-64
2022/06/16 10:49:36;;;;;;;4.07;2.65;;;;;;;;;;5006976;28;20042;-64
2022/06/16 10:52:05;;;;;;;6.70;2.70;;;;;;;;;;5008952;28;20050;-65
2022/06/16 10:54:34;;;;;;;8.40;2.65;;;;;;;;;;5007960;28;20045;-75
2022/06/16 10:57:17;;;;;;;4.80;2.72;;;;;;;;;;5002444;28;20105;-74
2022/06/16 10:59:51;;;;;;;3.50;2.72;;;;;;;;;;4992338;28;20050;-75
2022/06/16 11:02:27;;;;;;;4.20;3.28;;;;;;;;;;4986017;28;20224;-75
2022/06/16 11:05:14;;;;;;;4.43;2.83;;;;;;;;;;4990220;28;20104;-65
2022/06/16 11:07:42;;;;;;;3.78;2.80;;;;;;;;;;5008309;28;20046;-65
2022/06/16 11:10:31;;;;;;;4.65;2.38;;;;;;;;;;5008469;28;20052;-65
2022/06/16 11:12:58;;;;;;;2.88;2.50;;;;;;;;;;5005619;28;20050;-65
2022/06/16 11:15:33;;;;;;;4.47;2.58;;;;;;;;;;5007492;28;20050;-65
2022/06/16 11:18:04;;;;;;;4.22;2.58;;;;;;;;;;4992371;28;20053;-65
2022/06/16 11:20:32;;;;;;;3.87;2.80;;;;;;;;;;4992096;28;20109;-64
2022/06/16 11:22:59;;;;;;;3.15;2.35;;;;;;;;;;5005477;28;20046;-65
2022/06/16 11:25:32;;;;;;;2.83;2.55;;;;;;;;;;5004352;28;20042;-65
2022/06/16 11:28:01;;;;;;;5.43;2.40;;;;;;;;;;5005883;28;20045;-65
2022/06/16 11:30:54;;;;;;;4.97;2.80;;;;;;;;;;5005513;28;20061;-65
2022/06/16 11:37:04;;;;;;;2.75;2.28;;;;;;;;;;5005565;28;20046;-65
2022/06/16 11:39:49;;;;;;;6.90;2.60;;;;;;;;;;5016022;28;20042;-65
2022/06/16 11:42:25;;;;;;;8.07;2.60;;;;;;;;;;5004613;28;20085;-65
2022/06/16 11:45:29;;;;;;;2.72;2.30;;;;;;;;;;5017872;28;20061;-65
2022/06/16 11:48:15;;;;;;;4.88;2.58;;;;;;;;;;4996310;28;20082;-63
2022/06/16 11:50:49;;;;;;;4.22;2.70;;;;;;;;;;5012052;28;20049;-64
2022/06/16 11:53:39;;;;;;;3.17;2.13;;;;;;;;;;5008829;28;20062;-63
2022/06/16 11:56:20;;;;;;;2.60;2.28;;;;;;;;;;5007749;28;20410;-64
2022/06/16 11:58:59;;;;;;;4.25;2.08;;;;;;;;;;5000366;28;20100;-63
2022/06/16 12:01:53;;;;;;;2.28;2.08;;;;;;;;;;5000481;28;20054;-62
2022/06/16 12:04:34;;;;;;;4.53;2.22;;;;;;;;;;5001189;28;20065;-66
2022/06/16 12:07:04;;;;;;;5.95;2.40;;;;;;;;;;5002514;28;20097;-65
2022/06/16 12:10:03;;;;;;;3.72;2.40;;;;;;;;;;5005540;28;20843;-65
2022/06/16 12:12:53;;;;;;;3.78;2.17;;;;;;;;;;5000422;28;20119;-66
2022/06/16 12:15:59;;;;;;;4.60;2.60;;;;;;;;;;5002637;28;20050;-66
2022/06/16 12:18:38;;;;;;;3.65;2.42;;;;;;;;;;5003189;28;20070;-66
2022/06/16 12:21:39;;;;;;;5.88;2.40;;;;;;;;;;5000121;28;20046;-66
2022/06/16 12:24:24;;;;;;;4.90;2.50;;;;;;;;;;5002038;28;20522;-66
2022/06/16 12:26:58;;;;;;;3.55;2.38;;;;;;;;;;5005008;28;20453;-66
2022/06/16 12:29:40;;;;;;;3.92;2.28;;;;;;;;;;5005465;28;20059;-66
2022/06/16 12:32:34;;;;;;;3.20;2.30;;;;;;;;;;5002819;28;20073;-65
2022/06/16 12:35:29;;;;;;;4.35;2.10;;;;;;;;;;5003682;28;20108;-65
2022/06/16 12:38:03;;;;;;;5.10;2.40;;;;;;;;;;5005063;28;20042;-66
2022/06/16 12:40:38;;;;;;;3.08;2.10;;;;;;;;;;5000063;28;20051;-66
2022/06/16 12:43:19;;;;;;;4.85;2.25;;;;;;;;;;5018122;28;20049;-66
2022/06/16 12:45:53;;;;;;;5.57;2.13;;;;;;;;;;5000860;28;20065;-65
2022/06/16 12:48:27;;;;;;;5.85;2.60;;;;;;;;;;5000823;28;20042;-66
2022/06/16 12:50:54;;;;;;;;;;;;;;;;;;4999286;28;20046;-66
2022/06/16 12:53:29;;;;;;;2.42;1.90;;;;;;;;;;5015927;28;19928;-66
2022/06/16 12:56:07;;;;;;;3.05;1.75;;;;;;;;;;5000227;28;20424;-66
2022/06/16 12:58:51;;;;;;;3.15;1.92;;;;;;;;;;4997766;28;20097;-67
2022/06/16 13:01:18;;;;;;;4.35;2.13;;;;;;;;;;5002188;28;20061;-66
2022/06/16 13:03:49;;;;;;;3.60;1.80;;;;;;;;;;5006476;28;20132;-66
2022/06/16 13:06:17;;;;;;;3.58;1.83;;;;;;;;;;5001168;28;20050;-66
2022/06/16 13:08:46;;;;;;;3.30;1.70;;;;;;;;;;4999540;28;20493;-66
2022/06/16 13:11:15;;;;;;;3.78;1.73;;;;;;;;;;4997465;28;20053;-67
2022/06/16 13:13:51;;;;;;;3.47;1.95;;;;;;;;;;4999414;28;20046;-66
2022/06/16 13:16:19;;;;;;;4.20;2.40;;;;;;;;;;4999103;28;20111;-67
2022/06/16 13:18:47;;;;;;;2.90;1.92;;;;;;;;;;4998951;28;20129;-66
2022/06/16 13:21:25;;;;;;;2.85;1.60;;;;;;;;;;4999063;28;20105;-66
2022/06/16 13:24:10;;;;;;;3.97;2.10;;;;;;;;;;4997927;28;20053;-67
2022/06/16 13:26:42;;;;;;;3.08;2.30;;;;;;;;;;5000432;28;20054;-67
2022/06/16 13:29:15;;;;;;;4.28;1.88;;;;;;;;;;5001806;28;20136;-67
2022/06/16 13:31:42;;;;;;;3.47;1.80;;;;;;;;;;4985688;28;20054;-67
2022/06/16 13:34:12;;;;;;;2.85;2.10;;;;;;;;;;5004386;28;20092;-67
2022/06/16 13:36:51;;;;;;;4.70;1.88;;;;;;;;;;5002964;28;20112;-67
2022/06/16 13:39:48;;;;;;;3.35;1.50;;;;;;;;;;4998694;28;20050;-64
2022/06/16 13:42:21;;;;;;;3.83;1.60;;;;;;;;;;5001121;28;20100;-66
2022/06/16 13:45:20;;;;;;;4.00;2.25;;;;;;;;;;5000427;28;20058;-65
2022/06/16 13:48:11;;;;;;;1.95;1.63;;;;;;;;;;4987452;28;20452;-67
2022/06/16 13:50:53;;;;;;;3.63;1.50;;;;;;;;;;4998566;28;20433;-68
2022/06/16 13:53:21;;;;;;;4.03;2.17;;;;;;;;;;5003445;28;20046;-67
2022/06/16 13:55:58;;;;;;;3.42;1.80;;;;;;;;;;4999559;28;20053;-68
2022/06/16 13:58:26;;;;;;;2.60;1.85;;;;;;;;;;5001572;28;20093;-68
2022/06/16 14:01:07;;;;;;;2.53;1.90;;;;;;;;;;4998915;28;20050;-67
2022/06/16 14:03:34;;;;;;;3.93;1.83;;;;;;;;;;5000571;28;20054;-68
2022/06/16 14:06:09;;;;;;;2.22;2.03;;;;;;;;;;4998228;28;20301;-69
2022/06/16 14:08:38;;;;;;;2.42;1.85;;;;;;;;;;4985705;28;20046;-69
2022/06/16 14:11:44;;;;;;;3.42;1.80;;;;;;;;;;4997229;28;20058;-70
2022/06/16 14:14:17;;;;;;;3.80;1.52;;;;;;;;;;4974919;28;20062;-71
2022/06/16 14:16:48;;;;;;;3.95;1.75;;;;;;;;;;4999428;28;20054;-71
2022/06/16 14:19:28;;;;;;;4.30;1.70;;;;;;;;;;4998855;28;20049;-70
2022/06/16 14:21:57;;;;;;;3.83;2.08;;;;;;;;;;4996451;28;20054;-71
2022/06/16 14:24:48;;;;;;;2.83;1.75;;;;;;;;;;5000257;28;20058;-70
2022/06/16 14:27:28;;;;;;;3.35;1.90;;;;;;;;;;5004027;28;20042;-70
2022/06/16 14:29:55;;;;;;;5.25;1.80;;;;;;;;;;4996810;28;20046;-70
2022/06/16 14:32:32;;;;;;;2.95;1.52;;;;;;;;;;4982110;28;20121;-71
2022/06/16 14:35:17;;;;;;;2.40;1.83;;;;;;;;;;5002947;28;20080;-70
2022/06/16 14:38:01;;;;;;;4.82;1.80;;;;;;;;;;5001716;28;20500;-70
2022/06/16 14:40:34;;;;;;;4.53;1.83;;;;;;;;;;4997427;28;20046;-70
2022/06/16 14:43:11;;;;;;;2.45;1.90;;;;;;;;;;4998445;28;20047;-70
2022/06/16 14:45:43;;;;;;;4.32;1.90;;;;;;;;;;5003776;28;20493;-70
2022/06/16 14:48:29;;;;;;;4.47;2.05;;;;;;;;;;4998372;28;20046;-70
2022/06/16 14:51:01;;;;;;;4.70;1.90;;;;;;;;;;5001236;28;20054;-70
2022/06/16 14:53:29;;;;;;;3.53;1.83;;;;;;;;;;4984442;28;20145;-70
2022/06/16 14:56:11;;;;;;;3.38;1.85;;;;;;;;;;5015556;28;20050;-70
2022/06/16 14:58:53;;;;;;;4.50;2.07;;;;;;;;;;5006189;28;20050;-71
2022/06/16 15:01:35;;;;;;;3.97;1.85;;;;;;;;;;5005443;28;20304;-70
2022/06/16 15:04:08;;;;;;;4.85;2.25;;;;;;;;;;4996203;28;20129;-71
2022/06/16 15:06:48;;;;;;;4.05;2.03;;;;;;;;;;5000800;28;20116;-70
2022/06/16 15:09:18;;;;;;;5.43;1.80;;;;;;;;;;5001133;28;20061;-70
2022/06/16 15:11:45;;;;;;;3.05;1.88;;;;;;;;;;4998960;28;20045;-70
2022/06/16 15:14:15;;;;;;;2.75;1.75;;;;;;;;;;4997845;28;20074;-71
2022/06/16 15:19:32;;;;;;;12.20;1.85;;;;;;;;;;5003749;28;20049;-67
2022/06/16 15:21:59;;;;;;;4.53;1.75;;;;;;;;;;4982097;28;20518;-71
2022/06/16 15:24:43;;;;;;;3.10;2.00;;;;;;;;;;4996175;28;20062;-71
2022/06/16 15:27:12;;;;;;;3.15;1.85;;;;;;;;;;4999096;28;20046;-71
2022/06/16 15:29:45;;;;;;;3.40;1.80;;;;;;;;;;4996346;28;20449;-70
2022/06/16 15:38:00;;;;;;;4.85;2.13;;;;;;;;;;5006860;28;20445;-70
2022/06/16 15:40:33;;;;;;;4.45;2.08;;;;;;;;;;5003174;28;20124;-69
2022/06/16 15:43:00;;;;;;;2.13;1.88;;;;;;;;;;5003791;28;20058;-70
2022/06/16 15:45:29;;;;;;;2.97;2.17;;;;;;;;;;5024418;28;20389;-70
2022/06/16 15:47:56;;;;;;;3.13;1.77;;;;;;;;;;5060086;22;20134;-66